createdAt,value
2023-02-23T00:01:27.480Z,9.70
2023-02-23T00:03:58.042Z,9.70
2023-02-23T00:06:27.038Z,9.70
2023-02-23T00:08:55.050Z,9.70
2023-02-23T00:11:24.837Z,9.70
2023-02-23T00:13:52.782Z,9.60
2023-02-23T00:16:23.395Z,9.50
2023-02-23T00:18:53.804Z,9.60
2023-02-23T00:21:25.511Z,9.60
2023-02-23T00:23:55.316Z,9.60
2023-02-23T00:26:25.168Z,9.60
2023-02-23T00:28:54.951Z,9.60
2023-02-23T00:31:25.771Z,9.50
2023-02-23T00:33:55.712Z,9.50
2023-02-23T00:36:27.071Z,9.50
2023-02-23T00:38:56.547Z,9.50
2023-02-23T00:41:28.569Z,9.50
2023-02-23T00:43:57.184Z,9.50
2023-02-23T00:46:28.220Z,9.50
2023-02-23T00:48:57.594Z,9.50
2023-02-23T00:51:31.093Z,9.50
2023-02-23T00:53:59.974Z,9.50
2023-02-23T00:56:28.703Z,9.60
2023-02-23T00:58:56.842Z,9.60
2023-02-23T01:01:25.287Z,9.50
2023-02-23T01:03:54.048Z,9.60
2023-02-23T01:06:22.514Z,9.50
2023-02-23T01:08:56.607Z,9.60
2023-02-23T01:11:27.733Z,9.50
2023-02-23T01:13:57.404Z,9.50
2023-02-23T01:16:27.904Z,9.50
2023-02-23T01:18:56.932Z,9.40
2023-02-23T01:21:27.805Z,9.50
2023-02-23T01:23:57.623Z,9.40
2023-02-23T01:26:27.655Z,9.40
2023-02-23T01:28:57.900Z,9.40
2023-02-23T01:31:26.738Z,9.40
2023-02-23T01:33:56.047Z,9.40
2023-02-23T01:36:25.451Z,9.40
2023-02-23T01:38:55.206Z,9.40
2023-02-23T01:41:25.021Z,9.40
2023-02-23T01:43:57.873Z,9.40
2023-02-23T01:46:25.848Z,9.40
2023-02-23T01:48:56.354Z,9.40
2023-02-23T01:51:26.790Z,9.40
2023-02-23T01:53:58.989Z,9.40
2023-02-23T01:56:32.724Z,9.30
2023-02-23T01:59:05.207Z,9.30
2023-02-23T02:01:33.179Z,9.40
2023-02-23T02:04:05.660Z,9.40
2023-02-23T02:06:36.248Z,9.40
2023-02-23T02:09:08.098Z,9.40
2023-02-23T02:11:39.166Z,9.40
2023-02-23T02:14:12.921Z,9.30
2023-02-23T02:17:07.873Z,9.30
2023-02-23T02:20:32.734Z,9.30
2023-02-23T02:23:40.288Z,9.30
2023-02-23T02:26:20.822Z,9.30
2023-02-23T02:29:31.242Z,9.30
2023-02-23T02:32:30.381Z,9.30
2023-02-23T02:35:22.984Z,9.30
2023-02-23T02:38:03.614Z,9.30
2023-02-23T02:40:38.322Z,9.30
2023-02-23T02:43:16.011Z,9.30
2023-02-23T02:45:51.122Z,9.30
2023-02-23T02:48:25.616Z,9.40
2023-02-23T02:50:57.193Z,9.50
2023-02-23T02:53:34.579Z,9.50
2023-02-23T02:56:05.766Z,9.40
2023-02-23T02:58:34.307Z,9.50
2023-02-23T03:01:25.961Z,9.50
2023-02-23T03:04:11.628Z,9.60
2023-02-23T03:07:04.646Z,9.70
2023-02-23T03:09:59.320Z,9.70
2023-02-23T03:12:57.853Z,9.70
2023-02-23T03:15:55.590Z,9.70
2023-02-23T03:18:58.259Z,9.60
2023-02-23T03:21:47.296Z,9.40
2023-02-23T03:24:39.613Z,9.40
2023-02-23T03:27:36.562Z,9.40
2023-02-23T03:30:28.788Z,9.40
2023-02-23T03:33:18.348Z,9.40
2023-02-23T03:36:14.701Z,9.40
2023-02-23T03:39:05.617Z,9.40
2023-02-23T03:41:54.810Z,9.30
2023-02-23T03:44:46.668Z,9.30
2023-02-23T03:47:35.003Z,9.20
2023-02-23T03:50:26.956Z,9.20
2023-02-23T03:53:16.978Z,9.30
2023-02-23T03:56:07.410Z,9.30
2023-02-23T03:58:57.071Z,9.30
2023-02-23T04:01:45.276Z,9.30
2023-02-23T04:04:30.677Z,9.30
2023-02-23T04:07:20.427Z,9.30
2023-02-23T04:10:05.984Z,9.30
2023-02-23T04:12:56.050Z,9.30
2023-02-23T04:15:27.140Z,9.30
2023-02-23T04:17:56.658Z,9.20
2023-02-23T04:20:25.721Z,9.10
2023-02-23T04:22:53.707Z,9.10
2023-02-23T04:25:22.757Z,9.10
2023-02-23T04:27:50.779Z,9.10
2023-02-23T04:30:20.463Z,9.20
2023-02-23T04:32:48.401Z,9.20
2023-02-23T04:35:17.769Z,9.20
2023-02-23T04:37:45.620Z,9.20
2023-02-23T04:40:14.201Z,9.20
2023-02-23T04:42:42.555Z,9.30
2023-02-23T04:45:11.784Z,9.30
2023-02-23T04:47:39.853Z,9.30
2023-02-23T04:50:08.767Z,9.20
2023-02-23T04:52:38.926Z,9.20
2023-02-23T04:55:08.362Z,9.30
2023-02-23T04:57:36.343Z,9.30
2023-02-23T05:00:05.033Z,9.40
2023-02-23T05:02:33.003Z,9.50
2023-02-23T05:05:00.884Z,9.50
2023-02-23T05:07:28.802Z,9.50
2023-02-23T05:09:58.024Z,9.50
2023-02-23T05:12:25.892Z,9.50
2023-02-23T05:14:53.820Z,9.50
2023-02-23T05:17:21.778Z,9.50
2023-02-23T05:19:49.683Z,9.60
2023-02-23T05:22:17.569Z,9.50
2023-02-23T05:24:45.452Z,9.50
2023-02-23T05:27:15.453Z,9.50
2023-02-23T05:29:43.255Z,9.50
2023-02-23T05:32:11.306Z,9.50
2023-02-23T05:34:39.516Z,9.50
2023-02-23T05:37:07.448Z,9.50
2023-02-23T05:39:35.284Z,9.50
2023-02-23T05:42:03.185Z,9.40
2023-02-23T05:44:32.620Z,9.40
2023-02-23T05:47:00.890Z,9.40
2023-02-23T05:49:29.385Z,9.40
2023-02-23T05:51:57.312Z,9.40
2023-02-23T05:54:25.180Z,9.40
2023-02-23T05:56:53.209Z,9.40
2023-02-23T05:59:21.085Z,9.40
2023-02-23T06:01:50.468Z,9.40
2023-02-23T06:04:18.323Z,9.40
2023-02-23T06:06:46.807Z,9.40
2023-02-23T06:09:14.672Z,9.40
2023-02-23T06:11:42.536Z,9.40
2023-02-23T06:14:10.390Z,9.40
2023-02-23T06:16:38.420Z,9.40
2023-02-23T06:19:08.174Z,9.40
2023-02-23T06:21:36.039Z,9.40
2023-02-23T06:24:04.118Z,9.40
2023-02-23T06:26:32.255Z,9.40
2023-02-23T06:29:00.193Z,9.40
2023-02-23T06:34:18.960Z,9.30
2023-02-23T06:36:46.887Z,9.20
2023-02-23T06:39:14.819Z,9.20
2023-02-23T06:41:42.676Z,9.20
2023-02-23T06:44:10.725Z,9.20
2023-02-23T06:46:38.671Z,9.20
2023-02-23T06:49:06.831Z,9.20
2023-02-23T06:51:36.083Z,9.20
2023-02-23T06:54:03.988Z,9.20
2023-02-23T06:56:31.914Z,9.30
2023-02-23T06:58:59.817Z,9.20
2023-02-23T07:01:27.830Z,9.20
2023-02-23T07:03:55.797Z,9.20
2023-02-23T07:06:24.338Z,9.30
2023-02-23T07:08:53.650Z,9.30
2023-02-23T07:11:21.816Z,9.30
2023-02-23T07:13:49.912Z,9.40
2023-02-23T07:16:17.826Z,9.40
2023-02-23T07:18:45.768Z,9.50
2023-02-23T07:21:13.648Z,9.60
2023-02-23T07:23:41.603Z,9.60
2023-02-23T07:26:15.316Z,9.50
2023-02-23T07:28:43.289Z,9.60
2023-02-23T07:31:11.398Z,9.60
2023-02-23T07:33:39.419Z,9.60
2023-02-23T07:36:07.783Z,9.60
2023-02-23T07:38:36.593Z,9.70
2023-02-23T07:41:06.070Z,9.80
2023-02-23T07:43:35.391Z,9.80
2023-02-23T07:46:03.664Z,9.90
2023-02-23T07:48:31.591Z,9.90
2023-02-23T07:50:59.588Z,10.00
2023-02-23T07:53:28.229Z,10.00
2023-02-23T07:56:00.709Z,10.00
2023-02-23T07:58:28.823Z,10.00
2023-02-23T08:01:00.829Z,10.10
2023-02-23T08:03:28.866Z,10.10
2023-02-23T08:06:00.079Z,10.20
2023-02-23T08:08:28.775Z,10.20
2023-02-23T08:11:01.745Z,10.20
2023-02-23T08:13:31.417Z,10.30
2023-02-23T08:16:00.965Z,10.30
2023-02-23T08:18:29.149Z,10.40
2023-02-23T08:21:00.209Z,10.60
2023-02-23T08:23:30.274Z,10.80
2023-02-23T08:25:59.643Z,11.00
2023-02-23T08:28:27.697Z,11.20
2023-02-23T08:30:55.860Z,11.20
2023-02-23T08:33:25.294Z,11.40
2023-02-23T08:35:53.588Z,11.80
2023-02-23T08:38:21.880Z,12.30
2023-02-23T08:40:49.812Z,12.60
2023-02-23T08:43:17.729Z,13.00
2023-02-23T08:45:46.102Z,13.50
2023-02-23T08:48:14.042Z,14.10
2023-02-23T08:50:43.400Z,14.40
2023-02-23T08:53:11.395Z,14.90
2023-02-23T08:55:39.295Z,15.40
2023-02-23T08:58:10.622Z,15.50
2023-02-23T09:00:39.308Z,15.30
2023-02-23T09:03:07.778Z,15.40
2023-02-23T09:05:38.878Z,15.80
2023-02-23T09:08:08.248Z,16.30
2023-02-23T09:10:36.136Z,16.80
2023-02-23T09:13:04.015Z,17.20
2023-02-23T09:15:32.472Z,17.30
2023-02-23T09:18:02.591Z,17.20
2023-02-23T09:20:30.562Z,16.80
2023-02-23T09:22:58.415Z,16.80
2023-02-23T09:25:29.266Z,17.00
2023-02-23T09:27:59.572Z,17.10
2023-02-23T09:30:28.603Z,16.90
2023-02-23T09:32:57.458Z,17.00
2023-02-23T09:35:26.088Z,17.20
2023-02-23T09:37:56.712Z,17.20
2023-02-23T09:40:28.786Z,17.60
2023-02-23T09:43:03.740Z,17.50
2023-02-23T09:45:37.349Z,17.10
2023-02-23T09:48:13.703Z,16.90
2023-02-23T09:50:45.523Z,16.90
2023-02-23T09:53:34.150Z,17.00
2023-02-23T09:56:08.764Z,16.90
2023-02-23T09:58:37.160Z,16.90
2023-02-23T10:01:25.124Z,16.90
2023-02-23T10:03:58.681Z,16.70
2023-02-23T10:06:27.211Z,16.90
2023-02-23T10:09:06.567Z,16.90
2023-02-23T10:11:45.012Z,16.60
2023-02-23T10:14:23.536Z,16.30
2023-02-23T10:17:06.471Z,15.80
2023-02-23T10:19:44.444Z,15.50
2023-02-23T10:22:14.731Z,15.40
2023-02-23T10:24:46.363Z,15.40
2023-02-23T10:27:19.007Z,15.60
2023-02-23T10:29:51.656Z,15.60
2023-02-23T10:32:23.661Z,15.40
2023-02-23T10:34:56.565Z,15.30
2023-02-23T10:37:25.717Z,15.10
2023-02-23T10:39:54.439Z,14.90
2023-02-23T10:42:28.958Z,14.80
2023-02-23T10:44:57.910Z,14.80
2023-02-23T10:47:28.734Z,14.90
2023-02-23T10:49:58.484Z,15.30
2023-02-23T10:52:32.944Z,15.50
2023-02-23T10:55:03.337Z,15.60
2023-02-23T10:57:35.012Z,15.70
2023-02-23T11:00:09.982Z,15.80
2023-02-23T11:02:38.060Z,15.90
2023-02-23T11:05:07.658Z,15.70
2023-02-23T11:07:36.195Z,15.80
2023-02-23T11:10:27.440Z,15.80
2023-02-23T11:12:56.758Z,15.70
2023-02-23T11:15:48.080Z,15.90
2023-02-23T11:18:22.541Z,16.00
2023-02-23T11:20:51.251Z,16.00
2023-02-23T11:23:24.134Z,15.90
2023-02-23T11:25:56.426Z,15.80
2023-02-23T11:28:30.152Z,15.70
2023-02-23T11:31:02.051Z,15.60
2023-02-23T11:33:35.945Z,15.60
2023-02-23T11:36:19.095Z,15.80
2023-02-23T11:38:48.025Z,16.10
2023-02-23T11:41:22.080Z,16.30
2023-02-23T11:43:54.860Z,16.40
2023-02-23T11:46:23.934Z,16.60
2023-02-23T11:48:55.096Z,16.60
2023-02-23T11:51:29.896Z,16.70
2023-02-23T11:53:59.002Z,16.60
2023-02-23T11:56:28.702Z,16.50
2023-02-23T11:59:02.302Z,16.80
2023-02-23T12:01:41.712Z,16.90
2023-02-23T12:04:11.326Z,17.10
2023-02-23T12:06:42.158Z,17.20
2023-02-23T12:09:19.375Z,17.00
2023-02-23T12:11:51.154Z,16.80
2023-02-23T12:14:28.725Z,16.70
2023-02-23T12:17:04.195Z,16.50
2023-02-23T12:19:37.953Z,16.40
2023-02-23T12:22:12.023Z,16.60
2023-02-23T12:24:45.545Z,16.70
2023-02-23T12:27:17.513Z,17.00
2023-02-23T12:30:08.668Z,16.90
2023-02-23T12:32:46.485Z,16.90
2023-02-23T12:35:19.476Z,16.70
2023-02-23T12:37:52.149Z,16.50
2023-02-23T12:40:25.259Z,16.30
2023-02-23T12:43:00.285Z,16.20
2023-02-23T12:45:38.222Z,16.30
2023-02-23T12:48:16.154Z,16.20
2023-02-23T12:50:50.266Z,16.10
2023-02-23T12:53:22.939Z,16.00
2023-02-23T12:56:05.787Z,15.90
2023-02-23T12:58:42.442Z,15.80
2023-02-23T13:01:19.811Z,15.80
2023-02-23T13:04:06.137Z,15.70
2023-02-23T13:06:46.438Z,15.70
2023-02-23T13:09:26.829Z,15.70
2023-02-23T13:12:11.974Z,15.60
2023-02-23T13:14:46.661Z,15.70
2023-02-23T13:17:29.967Z,15.60
2023-02-23T13:20:00.709Z,15.50
2023-02-23T13:22:34.528Z,15.40
2023-02-23T13:25:05.429Z,15.30
2023-02-23T13:27:37.540Z,15.10
2023-02-23T13:30:10.304Z,14.90
2023-02-23T13:32:40.218Z,14.80
2023-02-23T13:35:14.252Z,14.70
2023-02-23T13:37:45.449Z,14.70
2023-02-23T13:40:24.741Z,14.70
2023-02-23T13:43:06.914Z,14.70
2023-02-23T13:45:54.152Z,14.70
2023-02-23T13:48:55.285Z,14.70
2023-02-23T13:51:33.778Z,14.80
2023-02-23T13:54:06.440Z,14.80
2023-02-23T13:56:42.909Z,14.70
2023-02-23T13:59:18.141Z,14.70
2023-02-23T14:01:48.927Z,14.70
2023-02-23T14:04:24.035Z,14.70
2023-02-23T14:06:56.652Z,14.70
2023-02-23T14:09:29.596Z,14.60
2023-02-23T14:12:05.485Z,14.60
2023-02-23T14:14:43.214Z,14.50
2023-02-23T14:17:31.421Z,14.50
2023-02-23T14:20:24.349Z,14.50
2023-02-23T14:23:27.435Z,14.40
2023-02-23T14:26:16.363Z,14.30
2023-02-23T14:28:46.386Z,14.20
2023-02-23T14:31:22.492Z,14.30
2023-02-23T14:33:58.045Z,14.30
2023-02-23T14:36:38.574Z,14.20
2023-02-23T14:39:11.421Z,14.20
2023-02-23T14:41:46.400Z,14.20
2023-02-23T14:44:29.030Z,14.10
2023-02-23T14:47:03.808Z,14.00
2023-02-23T14:49:35.756Z,14.00
2023-02-23T14:52:09.829Z,13.90
2023-02-23T14:54:39.671Z,13.90
2023-02-23T14:57:21.191Z,13.90
2023-02-23T14:59:55.711Z,13.90
2023-02-23T15:02:25.395Z,13.90
2023-02-23T15:04:53.674Z,13.80
2023-02-23T15:07:30.951Z,13.80
2023-02-23T15:10:00.920Z,13.80
2023-02-23T15:12:31.530Z,13.80
2023-02-23T15:15:02.047Z,13.80
2023-02-23T15:17:33.489Z,13.80
2023-02-23T15:20:15.121Z,13.80
2023-02-23T15:22:49.477Z,13.80
2023-02-23T15:25:20.209Z,13.90
2023-02-23T15:27:49.493Z,13.80
2023-02-23T15:30:27.588Z,13.70
2023-02-23T15:33:03.785Z,13.70
2023-02-23T15:35:37.908Z,13.80
2023-02-23T15:38:18.005Z,13.80
2023-02-23T15:41:01.758Z,13.80
2023-02-23T15:43:30.432Z,13.70
2023-02-23T15:46:04.226Z,13.70
2023-02-23T15:48:45.791Z,13.70
2023-02-23T15:51:23.473Z,13.60
2023-02-23T15:53:52.947Z,13.60
2023-02-23T15:56:26.367Z,13.60
2023-02-23T15:58:57.977Z,13.60
2023-02-23T16:01:27.456Z,13.60
2023-02-23T16:04:02.293Z,13.50
2023-02-23T16:06:35.295Z,13.50
2023-02-23T16:09:21.307Z,13.40
2023-02-23T16:11:54.818Z,13.40
2023-02-23T16:14:25.026Z,13.30
2023-02-23T16:17:09.851Z,13.30
2023-02-23T16:19:41.335Z,13.30
2023-02-23T16:22:20.564Z,13.20
2023-02-23T16:24:58.482Z,13.10
2023-02-23T16:27:28.099Z,13.00
2023-02-23T16:30:06.553Z,13.00
2023-02-23T16:32:38.114Z,12.90
2023-02-23T16:35:15.879Z,12.80
2023-02-23T16:37:59.044Z,12.80
2023-02-23T16:40:28.556Z,12.70
2023-02-23T16:42:59.322Z,12.70
2023-02-23T16:45:29.405Z,12.60
2023-02-23T16:48:02.051Z,12.60
2023-02-23T16:50:30.604Z,12.60
2023-02-23T16:52:58.546Z,12.50
2023-02-23T16:55:29.815Z,12.40
2023-02-23T16:57:59.996Z,12.40
2023-02-23T17:00:29.472Z,12.40
2023-02-23T17:03:00.596Z,12.30
2023-02-23T17:05:30.520Z,12.30
2023-02-23T17:07:59.038Z,12.20
2023-02-23T17:10:31.533Z,12.20
2023-02-23T17:13:02.473Z,12.10
2023-02-23T17:15:32.735Z,12.10
2023-02-23T17:18:00.834Z,12.10
2023-02-23T17:20:29.593Z,12.10
2023-02-23T17:22:59.543Z,12.00
2023-02-23T17:25:27.535Z,12.00
2023-02-23T17:27:58.031Z,12.00
2023-02-23T17:30:27.103Z,12.00
2023-02-23T17:32:58.163Z,11.90
2023-02-23T17:35:26.957Z,11.90
2023-02-23T17:37:55.247Z,11.90
2023-02-23T17:40:28.696Z,11.90
2023-02-23T17:42:59.552Z,11.80
2023-02-23T17:45:28.081Z,11.80
2023-02-23T17:47:56.041Z,11.80
2023-02-23T17:50:26.345Z,11.70
2023-02-23T17:52:55.028Z,11.70
2023-02-23T17:55:24.281Z,11.70
2023-02-23T17:57:52.242Z,11.60
2023-02-23T18:00:21.946Z,11.60
2023-02-23T18:02:49.921Z,11.60
2023-02-23T18:05:18.274Z,11.60
2023-02-23T18:07:48.344Z,11.50
2023-02-23T18:10:17.180Z,11.50
2023-02-23T18:12:45.416Z,11.50
2023-02-23T18:15:13.716Z,11.40
2023-02-23T18:17:42.971Z,11.40
2023-02-23T18:20:14.908Z,11.40
2023-02-23T18:22:43.049Z,11.40
2023-02-23T18:25:20.208Z,11.40
2023-02-23T18:27:51.374Z,11.40
2023-02-23T18:30:19.636Z,11.40
2023-02-23T18:32:49.268Z,11.30
2023-02-23T18:35:17.547Z,11.40
2023-02-23T18:37:45.506Z,11.30
2023-02-23T18:40:21.094Z,11.30
2023-02-23T18:42:49.182Z,11.30
2023-02-23T18:45:17.791Z,11.20
2023-02-23T18:47:45.789Z,11.20
2023-02-23T18:50:18.860Z,11.20
2023-02-23T18:52:47.406Z,11.20
2023-02-23T18:55:15.787Z,11.20
2023-02-23T18:57:43.849Z,11.10
2023-02-23T19:00:14.319Z,11.10
2023-02-23T19:02:43.431Z,11.10
2023-02-23T19:05:13.903Z,11.00
2023-02-23T19:07:43.389Z,11.00
2023-02-23T19:10:15.269Z,11.00
2023-02-23T19:12:43.750Z,11.00
2023-02-23T19:15:13.205Z,11.00
2023-02-23T19:17:41.119Z,11.00
2023-02-23T19:20:13.046Z,10.90
2023-02-23T19:22:42.992Z,10.90
2023-02-23T19:25:15.396Z,10.90
2023-02-23T19:27:43.695Z,10.90
2023-02-23T19:30:14.175Z,10.90
2023-02-23T19:32:42.864Z,10.90
2023-02-23T19:35:14.553Z,10.80
2023-02-23T19:37:48.548Z,10.80
2023-02-23T19:40:19.794Z,10.70
2023-02-23T19:42:47.842Z,10.70
2023-02-23T19:45:16.859Z,10.70
2023-02-23T19:47:45.287Z,10.70
2023-02-23T19:50:16.151Z,10.70
2023-02-23T19:52:47.446Z,10.70
2023-02-23T19:55:15.927Z,10.60
2023-02-23T19:57:43.948Z,10.60
2023-02-23T20:00:13.512Z,10.50
2023-02-23T20:02:43.604Z,10.50
2023-02-23T20:05:12.099Z,10.40
2023-02-23T20:07:40.174Z,10.40
2023-02-23T20:10:13.794Z,10.40
2023-02-23T20:12:42.166Z,10.30
2023-02-23T20:15:11.205Z,10.30
2023-02-23T20:17:40.128Z,10.20
2023-02-23T20:20:11.013Z,10.20
2023-02-23T20:22:41.403Z,10.20
2023-02-23T20:25:15.806Z,10.20
2023-02-23T20:27:44.548Z,10.10
2023-02-23T20:30:14.024Z,10.10
2023-02-23T20:32:42.098Z,10.10
2023-02-23T20:35:13.632Z,10.10
2023-02-23T20:37:42.071Z,10.10
2023-02-23T20:40:18.333Z,10.10
2023-02-23T20:42:47.736Z,10.10
2023-02-23T20:45:18.401Z,10.10
2023-02-23T20:47:47.146Z,10.10
2023-02-23T20:50:15.462Z,10.10
2023-02-23T20:52:45.810Z,10.10
2023-02-23T20:55:19.215Z,10.10
2023-02-23T20:57:47.946Z,10.10
2023-02-23T21:00:22.595Z,10.10
2023-02-23T21:02:55.220Z,10.10
2023-02-23T21:05:25.229Z,10.10
2023-02-23T21:07:53.532Z,10.10
2023-02-23T21:10:22.844Z,10.00
2023-02-23T21:12:50.773Z,10.00
2023-02-23T21:15:18.697Z,10.00
2023-02-23T21:17:46.580Z,10.00
2023-02-23T21:20:15.520Z,10.00
2023-02-23T21:22:43.544Z,9.90
2023-02-23T21:25:12.925Z,9.90
2023-02-23T21:27:44.904Z,9.90
2023-02-23T21:30:16.079Z,9.90
2023-02-23T21:32:44.453Z,9.90
2023-02-23T21:35:12.687Z,9.90
2023-02-23T21:37:42.069Z,9.80
2023-02-23T21:40:13.707Z,9.70
2023-02-23T21:42:44.124Z,9.70
2023-02-23T21:45:13.655Z,9.70
2023-02-23T21:47:43.650Z,9.60
2023-02-23T21:50:14.790Z,9.60
2023-02-23T21:52:43.789Z,9.60
2023-02-23T21:55:21.141Z,9.50
2023-02-23T21:57:52.305Z,9.50
2023-02-23T22:00:20.864Z,9.50
2023-02-23T22:02:49.517Z,9.50
2023-02-23T22:05:19.051Z,9.40
2023-02-23T22:07:51.102Z,9.40
2023-02-23T22:10:20.136Z,9.40
2023-02-23T22:12:50.036Z,9.40
2023-02-23T22:15:19.357Z,9.40
2023-02-23T22:17:47.224Z,9.40
2023-02-23T22:20:15.415Z,9.30
2023-02-23T22:22:43.590Z,9.30
2023-02-23T22:25:11.738Z,9.20
2023-02-23T22:27:41.603Z,9.30
2023-02-23T22:30:12.130Z,9.30
2023-02-23T22:32:42.605Z,9.30
2023-02-23T22:35:11.499Z,9.30
2023-02-23T22:37:39.639Z,9.20
2023-02-23T22:40:13.660Z,9.20
2023-02-23T22:42:43.261Z,9.20
2023-02-23T22:45:12.005Z,9.10
2023-02-23T22:47:41.358Z,9.20
2023-02-23T22:50:12.074Z,9.10
2023-02-23T22:52:40.760Z,9.10
2023-02-23T22:55:09.419Z,9.10
2023-02-23T22:57:37.352Z,9.10
2023-02-23T23:00:08.112Z,9.10
2023-02-23T23:02:36.605Z,9.10
2023-02-23T23:05:07.006Z,9.10
2023-02-23T23:07:35.093Z,9.10
2023-02-23T23:10:05.638Z,9.10
2023-02-23T23:12:34.370Z,9.10
2023-02-23T23:15:03.122Z,9.10
2023-02-23T23:17:32.337Z,9.10
2023-02-23T23:20:01.132Z,9.10
2023-02-23T23:22:33.167Z,9.10
2023-02-23T23:25:01.083Z,9.10
2023-02-23T23:27:29.023Z,9.10
2023-02-23T23:29:57.274Z,9.10
2023-02-23T23:32:27.442Z,9.10
2023-02-23T23:34:57.332Z,9.10
2023-02-23T23:37:28.949Z,9.00
2023-02-23T23:40:00.347Z,9.00
2023-02-23T23:42:28.404Z,9.00
2023-02-23T23:44:56.891Z,9.00
2023-02-23T23:47:26.325Z,9.00
2023-02-23T23:49:55.534Z,9.00
2023-02-23T23:52:25.234Z,9.00
2023-02-23T23:54:53.098Z,9.00
2023-02-23T23:57:22.298Z,8.90
2023-02-23T23:59:51.282Z,8.90
